createdAt,value
2023-01-04T00:00:00.877Z,493.93
2023-01-04T00:04:04.037Z,594.27
2023-01-04T00:08:12.650Z,229.30
2023-01-04T00:12:42.984Z,503.80
2023-01-04T00:16:46.592Z,477.77
2023-01-04T00:20:51.130Z,538.27
2023-01-04T00:24:55.579Z,249.80
2023-01-04T00:29:04.345Z,556.60
2023-01-04T00:33:35.295Z,449.17
2023-01-04T00:37:38.311Z,498.60
2023-01-04T00:42:01.186Z,464.00
2023-01-04T00:46:28.070Z,415.60
2023-01-04T00:50:31.371Z,372.50
2023-01-04T00:54:37.433Z,394.17
2023-01-04T00:58:42.039Z,310.43
2023-01-04T01:02:45.577Z,434.20
2023-01-04T01:06:51.161Z,456.40
2023-01-04T01:10:55.004Z,357.57
2023-01-04T01:15:04.337Z,404.27
2023-01-04T01:19:39.484Z,412.47
2023-01-04T01:23:43.931Z,409.70
2023-01-04T01:27:46.907Z,352.87
2023-01-04T01:31:51.436Z,419.73
2023-01-04T01:36:28.438Z,279.37
2023-01-04T01:40:31.601Z,312.80
2023-01-04T01:45:12.480Z,408.17
2023-01-04T01:49:24.844Z,392.17
2023-01-04T01:53:54.955Z,243.40
2023-01-04T01:58:03.695Z,328.73
2023-01-04T02:02:37.536Z,275.77
2023-01-04T02:06:48.821Z,331.30
2023-01-04T02:11:18.256Z,199.10
2023-01-04T02:15:24.847Z,431.23
2023-01-04T02:20:06.511Z,263.97
2023-01-04T02:24:44.871Z,314.23
2023-01-04T02:29:13.872Z,125.40
2023-01-04T02:33:40.270Z,190.30
2023-01-04T02:37:52.024Z,367.77
2023-01-04T02:42:24.514Z,282.63
2023-01-04T02:46:30.974Z,331.43
2023-01-04T02:50:40.674Z,304.70
2023-01-04T02:54:49.460Z,203.03
2023-01-04T02:59:04.948Z,379.97
2023-01-04T03:03:42.244Z,299.23
2023-01-04T03:07:52.768Z,274.73
2023-01-04T03:12:18.980Z,245.40
2023-01-04T03:16:26.187Z,271.87
2023-01-04T03:20:31.542Z,188.27
2023-01-04T03:24:53.731Z,317.33
2023-01-04T03:29:24.848Z,190.77
2023-01-04T03:33:45.317Z,238.47
2023-01-04T03:38:20.658Z,476.60
2023-01-04T03:42:48.218Z,164.07
2023-01-04T03:47:12.366Z,208.63
2023-01-04T03:51:20.293Z,84.20
2023-01-04T03:55:25.543Z,58.07
2023-01-04T03:59:30.249Z,57.57
2023-01-04T04:03:51.703Z,267.50
2023-01-04T04:08:13.091Z,109.23
2023-01-04T04:12:16.276Z,300.63
2023-01-04T04:16:20.759Z,77.77
2023-01-04T04:20:23.941Z,49.50
2023-01-04T04:24:30.082Z,172.23
2023-01-04T04:28:33.490Z,414.87
2023-01-04T04:32:43.045Z,359.20
2023-01-04T04:36:46.205Z,232.43
2023-01-04T04:41:08.611Z,89.87
2023-01-04T04:45:12.323Z,207.67
2023-01-04T04:49:17.492Z,453.13
2023-01-04T04:53:23.555Z,325.33
2023-01-04T04:57:28.542Z,55.50
2023-01-04T05:01:35.227Z,156.47
2023-01-04T05:05:39.850Z,293.03
2023-01-04T05:09:44.854Z,67.70
2023-01-04T05:13:47.992Z,377.63
2023-01-04T05:17:54.047Z,56.60
2023-01-04T05:22:02.324Z,47.90
2023-01-04T05:26:05.761Z,37.87
2023-01-04T05:30:29.456Z,23.77
2023-01-04T05:34:35.344Z,43.97
2023-01-04T05:38:39.797Z,46.00
2023-01-04T05:42:45.491Z,44.87
2023-01-04T05:46:48.546Z,35.00
2023-01-04T05:50:56.004Z,41.87
2023-01-04T05:55:06.289Z,47.67
2023-01-04T05:59:09.296Z,47.87
2023-01-04T06:03:12.537Z,51.30
2023-01-04T06:07:16.869Z,52.87
2023-01-04T06:11:27.272Z,43.00
2023-01-04T06:15:39.518Z,55.70
2023-01-04T06:19:45.984Z,47.27
2023-01-04T06:23:49.067Z,54.53
2023-01-04T06:27:53.490Z,49.17
2023-01-04T06:31:59.546Z,38.33
2023-01-04T06:36:02.932Z,43.37
2023-01-04T06:40:07.485Z,48.07
2023-01-04T06:44:15.271Z,49.73
2023-01-04T06:48:18.730Z,52.00
2023-01-04T06:52:24.476Z,46.03
2023-01-04T06:56:28.047Z,46.80
2023-01-04T07:00:35.163Z,53.90
2023-01-04T07:04:38.288Z,48.33
2023-01-04T07:08:41.681Z,42.60
2023-01-04T07:12:46.550Z,47.53
2023-01-04T07:16:53.026Z,40.60
2023-01-04T07:20:59.052Z,46.00
2023-01-04T07:25:02.167Z,44.60
2023-01-04T07:29:17.521Z,47.20
2023-01-04T07:33:22.017Z,45.30
2023-01-04T07:37:29.739Z,47.33
2023-01-04T07:41:33.787Z,47.50
2023-01-04T07:45:39.769Z,55.60
2023-01-04T07:49:44.416Z,54.47
2023-01-04T07:53:47.541Z,49.70
2023-01-04T07:57:50.639Z,51.90
2023-01-04T08:01:54.104Z,39.53
2023-01-04T08:05:59.483Z,44.40
2023-01-04T08:10:08.477Z,46.43
2023-01-04T08:14:14.257Z,45.70
2023-01-04T08:18:20.472Z,44.13
2023-01-04T08:22:28.984Z,43.40
2023-01-04T08:26:34.927Z,48.63
2023-01-04T08:30:38.038Z,49.07
2023-01-04T08:34:47.414Z,41.60
2023-01-04T08:39:00.491Z,51.67
2023-01-04T08:43:06.924Z,48.43
2023-01-04T08:47:12.816Z,50.50
2023-01-04T08:51:17.738Z,52.87
2023-01-04T08:55:23.718Z,51.13
2023-01-04T08:59:27.621Z,41.10
2023-01-04T09:03:31.500Z,44.67
2023-01-04T09:07:34.623Z,42.63
2023-01-04T09:11:40.106Z,41.80
2023-01-04T09:15:43.075Z,50.47
2023-01-04T09:19:46.236Z,47.73
2023-01-04T09:23:49.655Z,45.27
2023-01-04T09:27:54.357Z,48.77
2023-01-04T09:31:59.025Z,36.63
2023-01-04T09:36:03.793Z,44.63
2023-01-04T09:40:12.077Z,41.97
2023-01-04T09:44:39.713Z,45.40
2023-01-04T09:48:53.537Z,40.73
2023-01-04T09:53:04.247Z,40.27
2023-01-04T09:57:15.205Z,42.50
2023-01-04T10:01:23.391Z,41.43
2023-01-04T10:05:30.040Z,44.13
2023-01-04T10:09:33.311Z,35.17
2023-01-04T10:13:53.371Z,35.57
2023-01-04T10:22:41.526Z,36.20
2023-01-04T10:26:48.724Z,39.40
2023-01-04T10:31:38.857Z,32.30
2023-01-04T10:35:29.397Z,39.53
2023-01-04T10:39:36.206Z,38.43
2023-01-04T10:44:11.205Z,34.87
2023-01-04T10:48:20.401Z,41.20
2023-01-04T10:52:37.247Z,44.57
2023-01-04T10:56:56.800Z,39.93
2023-01-04T11:01:08.984Z,43.37
2023-01-04T11:05:20.958Z,39.67
2023-01-04T11:09:28.709Z,34.00
2023-01-04T11:13:32.866Z,30.97
2023-01-04T11:17:37.271Z,34.07
2023-01-04T11:21:50.546Z,30.57
2023-01-04T11:26:08.984Z,33.33
2023-01-04T11:30:20.025Z,28.47
2023-01-04T11:34:45.573Z,24.47
2023-01-04T11:38:56.803Z,25.45
2023-01-04T11:43:20.919Z,24.87
2023-01-04T11:47:28.289Z,22.33
2023-01-04T11:51:39.668Z,23.23
2023-01-04T11:55:43.662Z,18.95
2023-01-04T12:00:08.928Z,22.37
2023-01-04T12:04:16.297Z,19.83
2023-01-04T12:08:30.249Z,15.57
2023-01-04T12:12:35.187Z,16.20
2023-01-04T12:16:52.386Z,11.63
2023-01-04T12:20:56.118Z,11.90
2023-01-04T12:25:01.088Z,14.20
2023-01-04T12:29:42.173Z,14.67
2023-01-04T12:33:47.473Z,9.25
2023-01-04T12:37:50.739Z,8.13
2023-01-04T12:42:26.686Z,7.57
2023-01-04T12:47:16.256Z,7.63
2023-01-04T12:51:32.100Z,9.53
2023-01-04T12:56:01.358Z,8.10
2023-01-04T13:00:11.644Z,6.65
2023-01-04T13:04:39.236Z,7.90
2023-01-04T13:08:47.136Z,5.53
2023-01-04T13:13:08.469Z,4.55
2023-01-04T13:17:23.154Z,5.85
2023-01-04T13:21:30.754Z,4.13
2023-01-04T13:25:40.143Z,4.93
2023-01-04T13:29:47.215Z,5.38
2023-01-04T13:33:50.306Z,3.43
2023-01-04T13:37:53.796Z,4.37
2023-01-04T13:42:03.993Z,5.03
2023-01-04T13:46:16.430Z,2.95
2023-01-04T13:50:31.637Z,4.28
2023-01-04T13:58:53.178Z,6.47
2023-01-04T14:03:24.531Z,24.10
2023-01-04T14:07:28.238Z,14.85
2023-01-04T14:11:52.070Z,27.05
2023-01-04T14:16:15.851Z,20.67
2023-01-04T14:20:38.622Z,4.17
2023-01-04T14:25:08.457Z,114.82
2023-01-04T14:29:25.848Z,18.70
2023-01-04T14:33:33.141Z,21.17
2023-01-04T14:37:36.295Z,5.47
2023-01-04T14:41:41.841Z,19.95
2023-01-04T14:45:47.921Z,9.70
2023-01-04T14:49:56.522Z,6.13
2023-01-04T14:53:59.773Z,4.22
2023-01-04T14:58:02.927Z,5.47
2023-01-04T15:02:07.739Z,4.20
2023-01-04T15:06:15.719Z,6.23
2023-01-04T15:10:25.991Z,5.35
2023-01-04T15:14:30.726Z,3.83
2023-01-04T15:18:34.042Z,6.93
2023-01-04T15:22:41.495Z,6.32
2023-01-04T15:26:47.310Z,7.37
2023-01-04T15:30:53.538Z,6.50
2023-01-04T15:34:59.857Z,5.83
2023-01-04T15:39:07.685Z,23.10
2023-01-04T15:43:11.874Z,30.85
2023-01-04T15:47:14.938Z,7.68
2023-01-04T15:51:18.527Z,9.70
2023-01-04T15:55:45.516Z,11.33
2023-01-04T15:59:51.783Z,7.75
2023-01-04T16:03:56.114Z,8.65
2023-01-04T16:08:53.719Z,4.82
2023-01-04T16:13:01.883Z,4.30
2023-01-04T16:17:04.939Z,6.43
2023-01-04T16:21:09.160Z,4.53
2023-01-04T16:25:14.061Z,6.75
2023-01-04T16:29:21.621Z,2.63
2023-01-04T16:33:57.042Z,2.92
2023-01-04T16:38:02.513Z,3.47
2023-01-04T16:42:10.704Z,2.80
2023-01-04T16:46:28.647Z,4.03
2023-01-04T16:50:31.735Z,7.18
2023-01-04T16:54:37.792Z,6.25
2023-01-04T16:58:43.827Z,4.00
2023-01-04T17:03:22.480Z,3.22
2023-01-04T17:07:32.798Z,3.30
2023-01-04T17:16:03.931Z,4.13
2023-01-04T17:20:09.853Z,4.82
2023-01-04T17:24:17.591Z,5.18
2023-01-04T17:28:25.136Z,4.68
2023-01-04T17:32:28.415Z,4.05
2023-01-04T17:37:06.628Z,4.03
2023-01-04T17:41:11.441Z,4.37
2023-01-04T17:45:45.695Z,3.60
2023-01-04T17:49:48.927Z,3.38
2023-01-04T17:53:57.910Z,6.10
2023-01-04T17:58:09.718Z,4.38
2023-01-04T18:02:38.593Z,3.63
2023-01-04T18:06:47.694Z,2.45
2023-01-04T18:11:08.503Z,3.20
2023-01-04T18:15:14.240Z,5.95
2023-01-04T18:19:22.907Z,3.83
2023-01-04T18:24:34.211Z,3.13
2023-01-04T18:28:18.484Z,4.15
2023-01-04T18:32:52.333Z,5.35
2023-01-04T18:36:57.783Z,8.32
2023-01-04T18:41:33.273Z,3.30
2023-01-04T18:46:12.075Z,3.53
2023-01-04T18:50:46.269Z,3.80
2023-01-04T18:54:52.282Z,3.47
2023-01-04T18:59:28.412Z,5.28
2023-01-04T19:04:08.809Z,3.97
2023-01-04T19:08:41.814Z,5.40
2023-01-04T19:13:19.230Z,4.60
2023-01-04T19:17:24.756Z,3.53
2023-01-04T19:21:59.790Z,3.20
2023-01-04T19:26:10.521Z,3.22
2023-01-04T19:30:39.134Z,2.58
2023-01-04T19:35:18.614Z,2.58
2023-01-04T19:39:52.428Z,4.30
2023-01-04T19:44:32.549Z,2.13
2023-01-04T19:49:12.479Z,2.50
2023-01-04T19:53:17.765Z,5.88
2023-01-04T19:57:23.666Z,2.28
2023-01-04T20:01:59.362Z,1.90
2023-01-04T20:06:05.252Z,1.90
2023-01-04T20:10:39.270Z,3.80
2023-01-04T20:14:42.421Z,1.73
2023-01-04T20:18:46.990Z,2.70
2023-01-04T20:23:24.100Z,1.70
2023-01-04T20:27:28.405Z,2.95
2023-01-04T20:32:08.613Z,1.98
2023-01-04T20:36:19.114Z,1.75
2023-01-04T20:40:48.549Z,1.58
2023-01-04T20:44:52.871Z,1.98
2023-01-04T20:49:26.724Z,4.03
2023-01-04T20:54:05.200Z,1.40
2023-01-04T20:58:38.826Z,1.70
2023-01-04T21:02:42.582Z,2.20
2023-01-04T21:06:45.863Z,2.75
2023-01-04T21:10:57.811Z,1.80
2023-01-04T21:15:25.456Z,2.45
2023-01-04T21:19:28.592Z,1.48
2023-01-04T21:23:32.008Z,2.50
2023-01-04T21:28:12.801Z,1.15
2023-01-04T21:32:18.490Z,1.88
2023-01-04T21:36:23.611Z,3.28
2023-01-04T21:40:27.159Z,1.50
2023-01-04T21:44:34.094Z,1.35
2023-01-04T21:48:37.263Z,3.25
2023-01-04T21:52:43.322Z,1.45
2023-01-04T21:56:46.577Z,2.55
2023-01-04T22:01:32.486Z,1.50
2023-01-04T22:05:37.760Z,1.10
2023-01-04T22:09:40.954Z,1.50
2023-01-04T22:13:44.539Z,1.95
2023-01-04T22:17:52.224Z,1.30
2023-01-04T22:21:55.497Z,1.20
2023-01-04T22:25:58.983Z,1.98
2023-01-04T22:30:02.324Z,1.33
2023-01-04T22:34:07.415Z,1.10
2023-01-04T22:38:41.919Z,1.13
2023-01-04T22:42:44.913Z,1.33
2023-01-04T22:46:48.333Z,1.10
2023-01-04T22:50:52.891Z,1.17
2023-01-04T22:54:58.022Z,1.55
2023-01-04T22:59:03.606Z,1.40
2023-01-04T23:03:10.676Z,1.60
2023-01-04T23:07:41.559Z,1.45
2023-01-04T23:11:49.293Z,2.55
2023-01-04T23:15:55.475Z,2.58
2023-01-04T23:19:58.562Z,1.10
2023-01-04T23:24:02.538Z,1.33
2023-01-04T23:28:06.986Z,1.33
2023-01-04T23:32:17.239Z,1.25
2023-01-04T23:36:21.960Z,1.30
2023-01-04T23:40:25.052Z,1.35
2023-01-04T23:44:33.875Z,1.20
2023-01-04T23:48:37.444Z,2.83
2023-01-04T23:52:42.933Z,1.10
2023-01-04T23:56:49.001Z,1.20
